Tabor, New Jersey
Current Conditions -  °F | °C
As of 8:45 PM on Saturday 25 Oct 2014 (Local Time) from KMMU Reporting Station
Clear Clear  
Wind Chill: 61°   Ceiling: Unl
Heat Index: 61°   Visibility: 10mi
Dew Point: 45°   Wind: 10mph
Humidity: 55%   Direction: 240°WSW
Pressure: 29.63"   Gusts: NA
Location:  40.8657°N, 74.4804°W
Report Text: KMMU 260045Z 24009KT 10SM SKC 16/07 A2963
Loading
Personal Weather Stations






























Interactive Weather Map
Tropical Storm Tracking
New forecast layout! Learn more

10-Day Weather Forecast

Advertisements
Track Severe Weather on mobile